createdAt,value
2023-03-13T00:04:33.686Z,3.72
2023-03-13T00:07:02.723Z,3.30
2023-03-13T00:09:31.312Z,3.40
2023-03-13T00:12:01.297Z,4.38
2023-03-13T00:14:35.312Z,3.60
2023-03-13T00:19:47.969Z,3.20
2023-03-13T00:22:14.907Z,3.55
2023-03-13T00:24:46.580Z,3.55
2023-03-13T00:27:13.913Z,3.83
2023-03-13T00:30:08.565Z,3.63
2023-03-13T00:32:44.062Z,4.15
2023-03-13T00:35:12.786Z,3.15
2023-03-13T00:37:40.713Z,3.58
2023-03-13T00:40:10.452Z,3.53
2023-03-13T00:43:07.482Z,3.75
2023-03-13T00:45:37.053Z,2.83
2023-03-13T00:48:10.034Z,2.72
2023-03-13T00:50:47.839Z,3.17
2023-03-13T00:53:15.630Z,3.13
2023-03-13T00:55:54.068Z,3.35
2023-03-13T00:58:21.809Z,3.35
2023-03-13T01:00:52.944Z,3.53
2023-03-13T01:03:21.220Z,3.20
2023-03-13T01:05:58.852Z,3.60
2023-03-13T01:08:29.250Z,2.70
2023-03-13T01:11:19.744Z,3.28
2023-03-13T01:13:48.973Z,3.78
2023-03-13T01:19:20.624Z,3.08
2023-03-13T01:21:50.652Z,3.13
2023-03-13T01:24:19.608Z,2.90
2023-03-13T01:26:49.383Z,2.80
2023-03-13T01:31:57.155Z,2.55
2023-03-13T01:34:25.510Z,3.90
2023-03-13T01:36:52.407Z,3.45
2023-03-13T01:39:19.212Z,3.13
2023-03-13T01:41:45.864Z,3.50
2023-03-13T01:44:24.831Z,3.42
2023-03-13T01:46:52.843Z,3.53
2023-03-13T01:49:33.444Z,3.20
2023-03-13T01:52:21.902Z,2.63
2023-03-13T01:55:07.771Z,2.92
2023-03-13T01:57:46.207Z,3.72
2023-03-13T02:00:19.041Z,2.80
2023-03-13T02:02:52.201Z,3.30
2023-03-13T02:05:21.231Z,3.00
2023-03-13T02:07:52.359Z,2.95
2023-03-13T02:10:19.525Z,2.90
2023-03-13T02:12:46.156Z,3.08
2023-03-13T02:15:21.456Z,2.60
2023-03-13T02:17:50.649Z,3.15
2023-03-13T02:20:22.352Z,2.72
2023-03-13T02:23:01.013Z,3.10
2023-03-13T02:25:45.846Z,3.25
2023-03-13T02:28:20.927Z,3.15
2023-03-13T02:30:50.147Z,2.47
2023-03-13T02:33:18.584Z,2.80
2023-03-13T02:38:20.502Z,2.67
2023-03-13T02:40:49.319Z,2.78
2023-03-13T02:43:20.803Z,2.92
2023-03-13T02:46:12.413Z,2.58
2023-03-13T02:48:44.647Z,3.22
2023-03-13T02:54:03.423Z,2.67
2023-03-13T02:56:32.163Z,2.58
2023-03-13T02:58:58.927Z,2.65
2023-03-13T03:01:26.539Z,3.22
2023-03-13T03:03:53.544Z,2.90
2023-03-13T03:06:20.590Z,2.92
2023-03-13T03:08:48.129Z,3.05
2023-03-13T03:11:14.915Z,2.80
2023-03-13T03:13:43.601Z,2.83
2023-03-13T03:16:12.469Z,2.65
2023-03-13T03:18:39.544Z,2.30
2023-03-13T03:21:06.786Z,2.75
2023-03-13T03:23:37.983Z,2.20
2023-03-13T03:26:06.139Z,2.88
2023-03-13T03:28:33.651Z,2.50
2023-03-13T03:31:11.007Z,2.40
2023-03-13T03:33:38.638Z,3.03
2023-03-13T03:36:11.653Z,2.90
2023-03-13T03:38:39.768Z,2.15
2023-03-13T03:43:35.514Z,2.03
2023-03-13T03:46:04.104Z,2.40
2023-03-13T03:48:31.673Z,2.65
2023-03-13T03:50:58.721Z,2.50
2023-03-13T03:53:26.295Z,2.20
2023-03-13T03:55:53.257Z,2.42
2023-03-13T03:58:20.229Z,2.40
2023-03-13T04:01:13.034Z,2.55
2023-03-13T04:03:43.773Z,2.40
2023-03-13T04:06:12.199Z,2.08
2023-03-13T04:08:42.500Z,2.00
2023-03-13T04:11:11.794Z,1.88
2023-03-13T04:13:41.797Z,1.92
2023-03-13T04:16:09.673Z,2.22
2023-03-13T04:18:37.552Z,2.03
2023-03-13T04:21:05.997Z,1.77
2023-03-13T04:23:46.746Z,1.88
2023-03-13T04:26:15.063Z,1.85
2023-03-13T04:28:43.034Z,1.73
2023-03-13T04:31:13.227Z,1.73
2023-03-13T04:33:58.867Z,1.48
2023-03-13T04:36:37.252Z,1.98
2023-03-13T04:39:13.190Z,1.55
2023-03-13T04:41:58.947Z,1.67
2023-03-13T04:44:46.291Z,1.67
2023-03-13T04:47:33.777Z,1.52
2023-03-13T04:50:08.981Z,1.88
2023-03-13T04:52:50.266Z,1.35
2023-03-13T04:55:40.542Z,1.23
2023-03-13T04:58:26.493Z,1.48
2023-03-13T05:01:13.805Z,1.73
2023-03-13T05:04:03.207Z,1.50
2023-03-13T05:06:48.731Z,1.35
2023-03-13T05:09:41.841Z,1.23
2023-03-13T05:12:28.922Z,1.40
2023-03-13T05:15:02.273Z,1.27
2023-03-13T05:18:04.457Z,1.23
2023-03-13T05:20:58.011Z,1.20
2023-03-13T05:23:43.140Z,1.15
2023-03-13T05:26:32.609Z,1.23
2023-03-13T05:29:17.969Z,1.65
2023-03-13T05:32:10.680Z,1.10
2023-03-13T05:34:58.522Z,1.27
2023-03-13T05:37:48.715Z,1.23
2023-03-13T05:40:27.569Z,1.20
2023-03-13T05:43:03.452Z,1.20
2023-03-13T05:45:59.527Z,1.90
2023-03-13T05:48:48.216Z,1.30
2023-03-13T05:51:26.485Z,1.00
2023-03-13T05:54:15.584Z,1.42
2023-03-13T05:57:01.333Z,1.45
2023-03-13T05:59:36.715Z,1.13
2023-03-13T06:02:24.417Z,1.25
2023-03-13T06:04:51.474Z,1.05
2023-03-13T06:07:18.689Z,1.25
2023-03-13T06:09:45.460Z,1.20
2023-03-13T06:12:12.663Z,0.93
2023-03-13T06:14:39.692Z,1.05
2023-03-13T06:17:26.776Z,0.98
2023-03-13T06:19:53.305Z,1.20
2023-03-13T06:22:19.745Z,1.15
2023-03-13T06:24:48.851Z,1.20
2023-03-13T06:27:16.092Z,0.88
2023-03-13T06:29:42.567Z,1.00
2023-03-13T06:32:09.071Z,0.95
2023-03-13T06:34:35.585Z,0.88
2023-03-13T06:37:02.048Z,0.90
2023-03-13T06:39:28.648Z,0.80
2023-03-13T06:41:55.067Z,0.80
2023-03-13T06:44:21.458Z,0.88
2023-03-13T06:46:47.942Z,0.85
2023-03-13T06:49:14.386Z,0.93
2023-03-13T06:51:40.846Z,0.80
2023-03-13T06:54:07.291Z,0.80
2023-03-13T06:56:33.803Z,0.70
2023-03-13T06:59:00.375Z,0.80
2023-03-13T07:01:26.877Z,1.10
2023-03-13T07:03:53.598Z,0.80
2023-03-13T07:06:20.288Z,0.90
2023-03-13T07:08:46.971Z,0.75
2023-03-13T07:11:14.274Z,0.70
2023-03-13T07:13:41.065Z,0.80
2023-03-13T07:16:10.070Z,0.90
2023-03-13T07:18:38.378Z,0.85
2023-03-13T07:21:05.241Z,0.80
2023-03-13T07:23:32.897Z,1.00
2023-03-13T07:26:01.313Z,0.90
2023-03-13T07:28:29.405Z,0.93
2023-03-13T07:30:55.838Z,1.08
2023-03-13T07:33:22.356Z,1.00
2023-03-13T07:35:50.684Z,0.90
2023-03-13T07:38:17.940Z,0.90
2023-03-13T07:40:49.279Z,0.80
2023-03-13T07:43:15.744Z,1.00
2023-03-13T07:45:59.457Z,0.80
2023-03-13T07:48:29.705Z,0.80
2023-03-13T07:50:56.877Z,0.90
2023-03-13T07:53:23.982Z,1.08
2023-03-13T07:55:55.433Z,1.00
2023-03-13T07:58:22.555Z,0.95
2023-03-13T08:00:49.074Z,1.00
2023-03-13T08:03:15.522Z,1.00
2023-03-13T08:05:41.956Z,1.05
2023-03-13T08:08:08.951Z,1.00
2023-03-13T08:10:35.413Z,1.20
2023-03-13T08:13:01.869Z,0.93
2023-03-13T08:15:28.716Z,1.02
2023-03-13T08:17:55.925Z,0.77
2023-03-13T08:20:22.541Z,1.02
2023-03-13T08:22:50.430Z,1.33
2023-03-13T08:25:17.207Z,1.27
2023-03-13T08:27:43.622Z,1.40
2023-03-13T08:30:10.609Z,1.13
2023-03-13T08:32:37.126Z,1.10
2023-03-13T08:35:04.372Z,1.27
2023-03-13T08:37:30.812Z,1.27
2023-03-13T08:39:57.267Z,1.10
2023-03-13T08:42:23.827Z,1.15
2023-03-13T08:44:50.331Z,1.23
2023-03-13T08:47:18.166Z,1.40
2023-03-13T08:49:44.962Z,7.28
2023-03-13T08:52:11.428Z,3.17
2023-03-13T08:54:37.911Z,1.20
2023-03-13T08:57:04.323Z,1.25
2023-03-13T08:59:30.790Z,1.20
2023-03-13T09:01:57.298Z,1.40
2023-03-13T09:04:23.724Z,1.30
2023-03-13T09:06:50.157Z,1.10
2023-03-13T09:09:16.633Z,1.13
2023-03-13T09:11:43.032Z,1.15
2023-03-13T09:14:10.434Z,1.15
2023-03-13T09:16:36.940Z,1.20
2023-03-13T09:19:04.264Z,1.38
2023-03-13T09:21:32.991Z,1.23
2023-03-13T09:23:59.565Z,1.35
2023-03-13T09:26:26.485Z,1.40
2023-03-13T09:28:53.369Z,1.25
2023-03-13T09:31:22.257Z,1.30
2023-03-13T09:33:49.511Z,1.25
2023-03-13T09:36:18.728Z,1.08
2023-03-13T09:38:47.209Z,1.30
2023-03-13T09:41:16.619Z,1.17
2023-03-13T09:44:09.781Z,1.13
2023-03-13T09:46:48.584Z,1.27
2023-03-13T09:49:34.865Z,1.20
2023-03-13T09:52:25.987Z,1.83
2023-03-13T09:55:05.642Z,1.25
2023-03-13T09:57:41.293Z,1.17
2023-03-13T10:00:13.497Z,1.40
2023-03-13T10:02:44.303Z,1.30
2023-03-13T10:05:13.578Z,1.30
2023-03-13T10:10:29.392Z,1.42
2023-03-13T10:13:03.554Z,1.52
2023-03-13T10:15:38.638Z,1.30
2023-03-13T10:18:34.261Z,1.73
2023-03-13T10:21:05.066Z,1.40
2023-03-13T10:23:48.311Z,1.33
2023-03-13T10:26:21.689Z,1.58
2023-03-13T10:28:48.205Z,1.58
2023-03-13T10:31:33.122Z,1.13
2023-03-13T10:34:10.632Z,1.50
2023-03-13T10:36:48.682Z,1.30
2023-03-13T10:39:20.172Z,1.48
2023-03-13T10:41:48.537Z,1.33
2023-03-13T10:44:17.746Z,1.40
2023-03-13T10:46:46.442Z,1.38
2023-03-13T10:49:23.404Z,1.27
2023-03-13T10:51:55.266Z,1.50
2023-03-13T10:54:30.067Z,1.48
2023-03-13T10:57:18.271Z,1.40
2023-03-13T10:59:49.660Z,1.50
2023-03-13T11:02:27.024Z,1.40
2023-03-13T11:04:53.807Z,1.60
2023-03-13T11:07:27.514Z,1.55
2023-03-13T11:10:18.397Z,1.40
2023-03-13T11:12:47.296Z,1.63
2023-03-13T11:15:16.719Z,1.50
2023-03-13T11:17:43.204Z,1.77
2023-03-13T11:20:18.396Z,1.50
2023-03-13T11:23:11.584Z,2.00
2023-03-13T11:25:43.294Z,1.60
2023-03-13T11:28:27.823Z,1.95
2023-03-13T11:31:07.677Z,1.70
2023-03-13T11:33:57.406Z,1.35
2023-03-13T11:36:36.546Z,1.65
2023-03-13T11:41:39.748Z,1.30
2023-03-13T11:44:24.395Z,2.13
2023-03-13T11:47:04.328Z,1.58
2023-03-13T11:49:37.165Z,1.50
2023-03-13T11:52:20.707Z,1.48
2023-03-13T11:55:24.588Z,1.35
2023-03-13T11:58:14.902Z,1.40
2023-03-13T12:00:48.774Z,1.50
2023-03-13T12:03:39.091Z,1.65
2023-03-13T12:06:15.895Z,1.90
2023-03-13T12:08:53.036Z,1.50
2023-03-13T12:11:26.541Z,1.40
2023-03-13T12:14:13.780Z,2.00
2023-03-13T12:16:51.239Z,1.50
2023-03-13T12:19:37.151Z,1.70
2023-03-13T12:22:16.260Z,1.30
2023-03-13T12:27:18.014Z,1.65
2023-03-13T12:29:51.905Z,1.35
2023-03-13T12:32:29.514Z,1.75
2023-03-13T12:35:16.723Z,1.40
2023-03-13T12:38:19.569Z,1.60
2023-03-13T12:40:49.765Z,1.60
2023-03-13T12:43:26.938Z,1.27
2023-03-13T12:45:59.796Z,1.30
2023-03-13T12:48:44.449Z,1.30
2023-03-13T12:51:33.673Z,1.35
2023-03-13T12:54:38.414Z,1.40
2023-03-13T12:57:20.357Z,1.55
2023-03-13T12:59:52.142Z,1.40
2023-03-13T13:02:25.001Z,1.60
2023-03-13T13:04:54.455Z,1.60
2023-03-13T13:07:28.647Z,1.45
2023-03-13T13:10:10.302Z,1.60
2023-03-13T13:12:38.200Z,1.70
2023-03-13T13:15:20.197Z,1.30
2023-03-13T13:17:54.734Z,1.50
2023-03-13T13:20:34.718Z,1.58
2023-03-13T13:23:34.545Z,1.40
2023-03-13T13:26:36.686Z,1.33
2023-03-13T13:29:11.855Z,1.50
2023-03-13T13:31:52.125Z,1.40
2023-03-13T13:34:31.068Z,1.38
2023-03-13T13:36:58.198Z,1.23
2023-03-13T13:39:48.025Z,1.05
2023-03-13T13:42:30.444Z,1.13
2023-03-13T13:44:58.870Z,1.20
2023-03-13T13:47:27.173Z,1.20
2023-03-13T13:49:57.906Z,1.20
2023-03-13T13:52:41.565Z,1.13
2023-03-13T13:55:26.390Z,1.48
2023-03-13T13:58:04.320Z,1.23
2023-03-13T14:00:46.812Z,1.10
2023-03-13T14:03:25.159Z,1.15
2023-03-13T14:05:54.741Z,1.15
2023-03-13T14:08:26.159Z,1.15
2023-03-13T14:11:04.136Z,1.30
2023-03-13T14:13:30.811Z,1.10
2023-03-13T14:15:57.315Z,1.30
2023-03-13T14:18:25.553Z,1.35
2023-03-13T14:21:03.247Z,1.50
2023-03-13T14:23:42.129Z,1.15
2023-03-13T14:28:43.274Z,1.27
2023-03-13T14:31:11.841Z,1.38
2023-03-13T14:33:38.382Z,1.20
2023-03-13T14:36:05.352Z,1.20
2023-03-13T14:38:32.884Z,1.27
2023-03-13T14:40:59.679Z,1.38
2023-03-13T14:43:38.150Z,1.20
2023-03-13T14:46:29.629Z,1.30
2023-03-13T14:48:56.267Z,1.10
2023-03-13T14:51:25.626Z,1.23
2023-03-13T14:54:02.549Z,1.15
2023-03-13T14:56:38.624Z,0.90
2023-03-13T14:59:16.256Z,1.20
2023-03-13T15:01:43.295Z,1.00
2023-03-13T15:04:09.841Z,1.10
2023-03-13T15:06:36.394Z,1.23
2023-03-13T15:09:20.860Z,1.20
2023-03-13T15:11:58.983Z,1.30
2023-03-13T15:14:36.517Z,1.03
2023-03-13T15:17:04.278Z,1.05
2023-03-13T15:19:32.251Z,1.40
2023-03-13T15:21:58.761Z,1.13
2023-03-13T15:24:25.233Z,1.33
2023-03-13T15:26:51.671Z,1.25
2023-03-13T15:29:18.232Z,1.00
2023-03-13T15:31:45.063Z,1.10
2023-03-13T15:34:13.313Z,1.15
2023-03-13T15:36:40.710Z,1.10
2023-03-13T15:39:15.621Z,1.10
2023-03-13T15:41:42.561Z,1.15
2023-03-13T15:44:09.085Z,1.05
2023-03-13T15:46:35.587Z,1.38
2023-03-13T15:49:02.065Z,1.40
2023-03-13T15:51:28.459Z,2.10
2023-03-13T15:53:54.918Z,1.90
2023-03-13T15:56:23.214Z,2.00
2023-03-13T15:58:50.904Z,2.43
2023-03-13T16:01:18.369Z,2.20
2023-03-13T16:03:44.819Z,2.50
2023-03-13T16:06:20.497Z,2.08
2023-03-13T16:08:46.902Z,1.83
2023-03-13T16:11:15.264Z,9.10
2023-03-13T16:13:42.217Z,2.58
2023-03-13T16:16:21.816Z,1.40
2023-03-13T16:18:49.535Z,1.45
2023-03-13T16:21:22.224Z,1.88
2023-03-13T16:23:48.850Z,1.65
2023-03-13T16:26:18.516Z,1.42
2023-03-13T16:28:45.290Z,1.50
2023-03-13T16:31:23.650Z,1.35
2023-03-13T16:33:53.441Z,1.73
2023-03-13T16:36:23.835Z,1.65
2023-03-13T16:38:50.484Z,2.17
2023-03-13T16:41:19.586Z,4.25
2023-03-13T16:43:46.384Z,2.42
2023-03-13T16:46:33.058Z,1.98
2023-03-13T16:48:59.730Z,2.05
2023-03-13T16:51:27.377Z,8.57
2023-03-13T16:53:55.125Z,6.90
2023-03-13T16:56:26.662Z,1.50
2023-03-13T16:58:53.856Z,1.52
2023-03-13T17:01:21.329Z,1.20
2023-03-13T17:03:47.772Z,1.25
2023-03-13T17:06:21.383Z,1.48
2023-03-13T17:08:47.967Z,1.20
2023-03-13T17:11:17.919Z,1.63
2023-03-13T17:13:45.903Z,1.45
2023-03-13T17:16:29.619Z,1.40
2023-03-13T17:18:56.423Z,0.95
2023-03-13T17:21:25.920Z,1.92
2023-03-13T17:23:53.297Z,2.80
2023-03-13T17:26:22.659Z,1.65
2023-03-13T17:28:50.723Z,1.48
2023-03-13T17:31:17.758Z,1.40
2023-03-13T17:33:44.824Z,1.30
2023-03-13T17:36:27.370Z,1.10
2023-03-13T17:38:55.836Z,1.33
2023-03-13T17:41:25.365Z,1.30
2023-03-13T17:43:52.432Z,1.50
2023-03-13T17:50:39.249Z,1.33
2023-03-13T17:53:05.952Z,1.10
2023-03-13T17:55:37.797Z,1.63
2023-03-13T17:58:07.314Z,1.00
2023-03-13T18:18:18.573Z,1.10
2023-03-13T18:20:45.282Z,1.58
2023-03-13T18:23:11.814Z,1.35
2023-03-13T18:56:15.004Z,1.52
2023-03-13T18:58:41.977Z,1.80
2023-03-13T19:01:12.469Z,1.67
2023-03-13T19:03:39.006Z,2.30
2023-03-13T19:06:19.342Z,2.10
2023-03-13T19:08:46.702Z,2.67
2023-03-13T19:11:14.484Z,2.42
2023-03-13T19:13:40.984Z,2.00
2023-03-13T19:16:15.897Z,1.90
2023-03-13T19:18:43.372Z,1.27
2023-03-13T19:21:29.959Z,1.73
2023-03-13T19:23:57.024Z,1.13
2023-03-13T19:26:30.352Z,1.10
2023-03-13T19:28:57.142Z,1.10
2023-03-13T19:31:23.697Z,1.20
2023-03-13T19:33:50.503Z,1.20
2023-03-13T19:36:19.509Z,1.05
2023-03-13T19:38:46.069Z,1.27
2023-03-13T19:41:13.726Z,1.10
2023-03-13T19:43:41.032Z,1.05
2023-03-13T19:46:29.179Z,1.23
2023-03-13T19:48:57.710Z,1.23
2023-03-13T19:51:24.906Z,1.10
2023-03-13T19:53:51.967Z,0.98
2023-03-13T19:56:23.674Z,1.13
2023-03-13T19:58:57.820Z,0.90
2023-03-13T20:01:24.437Z,1.00
2023-03-13T20:03:50.876Z,0.90
2023-03-13T20:06:23.214Z,1.05
2023-03-13T20:08:53.880Z,0.90
2023-03-13T20:11:20.429Z,0.70
2023-03-13T20:13:47.167Z,0.70
2023-03-13T20:16:13.937Z,0.73
2023-03-13T20:18:43.270Z,0.90
2023-03-13T20:21:10.628Z,0.80
2023-03-13T20:23:37.177Z,0.68
2023-03-13T20:26:09.665Z,0.70
2023-03-13T20:28:37.561Z,0.82
2023-03-13T20:31:04.566Z,1.00
2023-03-13T20:33:31.086Z,0.65
2023-03-13T20:36:00.097Z,0.75
2023-03-13T20:38:27.219Z,0.95
2023-03-13T20:40:54.877Z,0.60
2023-03-13T20:43:21.754Z,0.60
2023-03-13T20:45:48.284Z,0.70
2023-03-13T20:48:15.333Z,0.98
2023-03-13T20:50:42.222Z,0.88
2023-03-13T20:53:09.192Z,0.93
2023-03-13T20:55:38.857Z,0.77
2023-03-13T20:58:05.398Z,0.60
2023-03-13T21:00:32.423Z,0.70
2023-03-13T21:02:58.898Z,0.43
2023-03-13T21:05:25.384Z,0.60
2023-03-13T21:07:51.968Z,0.60
2023-03-13T21:10:18.504Z,0.73
2023-03-13T21:12:45.123Z,0.60
2023-03-13T21:15:12.175Z,0.50
2023-03-13T21:17:38.932Z,0.50
2023-03-13T21:20:13.554Z,0.65
2023-03-13T21:22:40.870Z,1.02
2023-03-13T21:25:08.884Z,0.60
2023-03-13T21:27:35.643Z,0.60
2023-03-13T21:30:06.850Z,0.80
2023-03-13T21:32:36.601Z,0.60
2023-03-13T21:35:03.878Z,0.70
2023-03-13T21:37:30.337Z,0.50
2023-03-13T21:39:56.852Z,0.70
2023-03-13T21:42:23.718Z,0.52
2023-03-13T21:44:50.229Z,0.68
2023-03-13T21:47:24.518Z,0.60
2023-03-13T21:49:52.184Z,0.60
2023-03-13T21:52:19.221Z,0.80
2023-03-13T21:54:45.990Z,0.70
2023-03-13T21:57:12.812Z,0.60
2023-03-13T21:59:39.216Z,0.60
2023-03-13T22:02:05.749Z,0.70
2023-03-13T22:04:32.213Z,0.60
2023-03-13T22:06:58.826Z,0.52
2023-03-13T22:09:25.348Z,0.70
2023-03-13T22:11:51.832Z,0.70
2023-03-13T22:14:18.667Z,0.52
2023-03-13T22:16:45.148Z,0.70
2023-03-13T22:19:13.287Z,0.77
2023-03-13T22:21:39.840Z,0.60
2023-03-13T22:24:07.856Z,0.63
2023-03-13T22:26:34.892Z,0.68
2023-03-13T22:29:01.468Z,0.70
2023-03-13T22:31:27.937Z,0.70
2023-03-13T22:33:54.359Z,0.55
2023-03-13T22:36:20.858Z,0.90
2023-03-13T22:38:48.127Z,0.68
2023-03-13T22:41:16.550Z,0.70
2023-03-13T22:43:43.900Z,0.77
2023-03-13T22:46:10.959Z,0.68
2023-03-13T22:48:37.562Z,0.80
2023-03-13T22:51:08.579Z,0.70
2023-03-13T22:53:36.518Z,0.60
2023-03-13T22:56:03.434Z,0.70
2023-03-13T22:58:29.860Z,0.88
2023-03-13T23:00:56.394Z,1.08
2023-03-13T23:03:23.154Z,0.60
2023-03-13T23:05:49.612Z,0.90
2023-03-13T23:08:16.955Z,0.93
2023-03-13T23:10:44.755Z,0.70
2023-03-13T23:13:11.959Z,0.88
2023-03-13T23:15:55.388Z,0.80
2023-03-13T23:18:23.640Z,0.73
2023-03-13T23:20:50.097Z,0.80
2023-03-13T23:23:16.717Z,0.80
2023-03-13T23:25:43.178Z,1.00
2023-03-13T23:28:09.598Z,0.70
2023-03-13T23:30:36.420Z,0.85
2023-03-13T23:33:02.878Z,0.82
2023-03-13T23:35:29.455Z,0.77
2023-03-13T23:37:55.990Z,0.90
2023-03-13T23:40:23.445Z,0.90
2023-03-13T23:42:51.114Z,1.10
2023-03-13T23:45:18.306Z,0.80
2023-03-13T23:47:45.378Z,0.95
2023-03-13T23:50:13.202Z,0.80
2023-03-13T23:52:39.820Z,0.85
2023-03-13T23:55:06.866Z,1.10
2023-03-13T23:57:33.365Z,1.38
